Time;durP1;ratioP1;P1;durP2;ratioP2;P2;SDS_P1;SDS_P2;PMS_P1;PMS_P2;Temp;Humidity;BMP_temperature;BMP_pressure;BME280_temperature;BME280_humidity;BME280_pressure;Samples;Min_cycle;Max_cycle;Signal;HPM_P1;HPM_P2
2022/04/07 00:01:17;;;;;;;9.68;6.60;;;21.10;48.20;;;;;;4972521;28;20034;-75
2022/04/07 00:03:43;;;;;;;10.93;6.75;;;21.10;48.20;;;;;;4972944;28;20033;-75
2022/04/07 00:06:12;;;;;;;10.50;6.57;;;21.10;48.20;;;;;;4971444;28;20027;-75
2022/04/07 00:08:41;;;;;;;23.27;21.42;;;21.10;48.20;;;;;;4972759;28;20046;-74
2022/04/07 00:11:08;;;;;;;10.93;7.72;;;21.10;48.20;;;;;;4972347;28;20038;-74
2022/04/07 00:13:34;;;;;;;10.52;7.20;;;21.10;48.20;;;;;;4971294;28;20507;-75
2022/04/07 00:16:00;;;;;;;9.90;6.30;;;21.10;48.20;;;;;;4972764;28;20038;-74
2022/04/07 00:18:27;;;;;;;11.15;6.95;;;21.10;48.20;;;;;;4971513;28;20030;-74
2022/04/07 00:20:53;;;;;;;10.15;7.07;;;21.10;48.30;;;;;;4971264;28;20390;-74
2022/04/07 00:23:20;;;;;;;11.43;7.13;;;21.10;48.20;;;;;;4970668;28;20122;-74
2022/04/07 00:25:46;;;;;;;9.73;6.60;;;21.10;48.30;;;;;;4972115;28;20035;-74
2022/04/07 00:28:12;;;;;;;10.15;7.13;;;21.10;48.30;;;;;;4972522;28;20031;-74
2022/04/07 00:30:39;;;;;;;9.77;5.78;;;21.10;48.30;;;;;;4972604;28;20485;-74
2022/04/07 00:33:07;;;;;;;10.73;7.22;;;21.10;48.20;;;;;;4970876;28;20126;-74
2022/04/07 00:35:33;;;;;;;9.88;6.93;;;21.10;48.30;;;;;;4972232;28;20547;-74
2022/04/07 00:37:59;;;;;;;10.38;6.43;;;21.00;48.90;;;;;;4972340;28;20026;-74
2022/04/07 00:40:25;;;;;;;9.35;6.82;;;21.10;48.30;;;;;;4972466;28;20035;-74
2022/04/07 00:42:52;;;;;;;11.52;6.55;;;21.10;48.30;;;;;;4971967;28;20315;-74
2022/04/07 00:45:19;;;;;;;10.10;6.32;;;21.10;48.30;;;;;;4971413;28;20457;-74
2022/04/07 00:47:47;;;;;;;10.43;6.00;;;21.10;48.30;;;;;;4972447;28;20033;-74
2022/04/07 00:50:15;;;;;;;10.48;6.85;;;21.10;48.30;;;;;;4972215;28;20026;-74
2022/04/07 00:52:49;;;;;;;10.95;6.57;;;21.10;48.30;;;;;;4971940;28;20035;-74
2022/04/07 00:55:15;;;;;;;9.80;6.10;;;21.10;48.30;;;;;;4972321;28;20035;-74
2022/04/07 00:57:42;;;;;;;8.73;5.95;;;21.10;48.30;;;;;;4972252;28;20095;-74
2022/04/07 01:00:09;;;;;;;9.30;5.97;;;21.10;48.30;;;;;;4972284;28;20093;-74
2022/04/07 01:02:36;;;;;;;10.35;6.28;;;21.10;48.30;;;;;;4971659;28;20065;-74
2022/04/07 01:05:06;;;;;;;10.50;6.20;;;21.10;48.40;;;;;;4972145;28;20041;-74
2022/04/07 01:07:37;;;;;;;10.15;6.00;;;21.10;48.30;;;;;;4972459;28;20034;-74
2022/04/07 01:10:08;;;;;;;9.63;5.82;;;21.10;48.40;;;;;;4972322;28;20023;-74
2022/04/07 01:12:35;;;;;;;11.13;7.78;;;21.10;48.30;;;;;;4970541;28;20027;-74
2022/04/07 01:15:03;;;;;;;9.63;6.10;;;21.10;48.30;;;;;;4954915;28;20082;-74
2022/04/07 01:17:30;;;;;;;8.98;5.63;;;21.10;48.30;;;;;;4971960;28;20546;-74
2022/04/07 01:19:56;;;;;;;9.95;6.28;;;21.10;48.30;;;;;;4955008;28;20108;-74
2022/04/07 01:22:23;;;;;;;10.32;6.20;;;21.10;48.30;;;;;;4971067;28;20111;-74
2022/04/07 01:24:49;;;;;;;8.38;5.47;;;21.10;48.30;;;;;;4972300;28;20158;-74
2022/04/07 01:27:16;;;;;;;8.65;5.72;;;21.10;48.20;;;;;;4971990;28;20110;-74
2022/04/07 01:29:43;;;;;;;9.00;5.60;;;21.10;48.30;;;;;;4970883;28;20030;-75
2022/04/07 01:32:19;;;;;;;10.07;6.82;;;21.10;48.30;;;;;;4971703;28;20027;-74
2022/04/07 01:34:45;;;;;;;9.93;5.47;;;21.10;48.30;;;;;;4972262;28;20026;-74
2022/04/07 01:37:12;;;;;;;8.25;5.20;;;21.10;48.30;;;;;;4975440;28;20114;-74
2022/04/07 01:39:41;;;;;;;8.27;6.35;;;21.10;48.30;;;;;;4974307;28;20027;-74
2022/04/07 01:42:14;;;;;;;9.07;5.80;;;21.10;48.30;;;;;;4973693;28;20116;-74
2022/04/07 01:44:54;;;;;;;8.80;5.88;;;21.10;48.30;;;;;;4975329;28;20395;-74
2022/04/07 01:47:21;;;;;;;8.63;5.65;;;21.10;48.30;;;;;;4975335;28;20045;-75
2022/04/07 01:49:54;;;;;;;9.43;5.75;;;21.10;48.30;;;;;;4975201;28;20026;-75
2022/04/07 01:52:20;;;;;;;8.65;5.47;;;21.10;48.30;;;;;;4973794;28;20038;-75
2022/04/07 01:54:48;;;;;;;9.05;5.47;;;21.10;48.30;;;;;;4974123;28;20027;-75
2022/04/07 01:57:15;;;;;;;9.82;5.88;;;21.10;48.30;;;;;;4974045;28;20055;-75
2022/04/07 01:59:41;;;;;;;8.75;5.60;;;21.10;48.30;;;;;;4975178;28;20034;-75
2022/04/07 02:02:07;;;;;;;8.20;5.10;;;21.10;48.40;;;;;;4974747;28;20106;-75
2022/04/07 02:04:33;;;;;;;8.68;5.45;;;21.10;48.40;;;;;;4957883;28;20097;-75
2022/04/07 02:06:58;;;;;;;8.07;5.63;;;21.10;48.40;;;;;;4958038;28;20446;-75
2022/04/07 02:09:24;;;;;;;7.93;5.28;;;21.00;48.30;;;;;;4975023;28;20023;-75
2022/04/07 02:11:50;;;;;;;6.93;4.60;;;21.10;48.40;;;;;;4974540;28;20025;-74
2022/04/07 02:14:15;;;;;;;9.13;5.38;;;21.10;48.40;;;;;;4974918;28;20027;-75
2022/04/07 02:16:41;;;;;;;7.68;4.97;;;21.10;48.40;;;;;;4957510;28;20193;-75
2022/04/07 02:19:08;;;;;;;7.10;4.80;;;21.10;48.40;;;;;;4973699;28;20035;-75
2022/04/07 02:21:34;;;;;;;7.93;4.95;;;21.10;48.40;;;;;;4974231;28;20037;-75
2022/04/07 02:23:59;;;;;;;7.07;4.95;;;21.10;48.30;;;;;;4974460;28;20422;-75
2022/04/07 02:26:25;;;;;;;7.70;4.82;;;21.10;48.30;;;;;;4974523;28;20027;-75
2022/04/07 02:28:51;;;;;;;9.80;5.40;;;21.10;48.30;;;;;;4974532;28;20395;-75
2022/04/07 02:31:17;;;;;;;7.38;4.82;;;21.10;48.30;;;;;;4974046;28;20161;-76
2022/04/07 02:33:42;;;;;;;7.20;5.10;;;21.10;48.30;;;;;;4973256;28;20030;-76
2022/04/07 02:36:09;;;;;;;7.93;5.30;;;21.10;48.30;;;;;;4974750;28;20042;-76
2022/04/07 02:38:36;;;;;;;9.00;5.60;;;21.10;48.30;;;;;;4973056;28;20042;-76
2022/04/07 02:41:03;;;;;;;6.78;4.45;;;21.10;48.30;;;;;;4974108;28;20447;-75
2022/04/07 02:43:28;;;;;;;8.30;4.97;;;21.10;48.30;;;;;;4974140;28;20423;-76
2022/04/07 02:45:54;;;;;;;8.20;5.10;;;21.10;48.30;;;;;;4974406;28;20033;-76
2022/04/07 02:48:20;;;;;;;7.53;4.82;;;21.10;48.30;;;;;;4972545;28;20487;-76
2022/04/07 02:50:46;;;;;;;8.13;5.00;;;21.10;48.30;;;;;;4974078;28;20027;-76
2022/04/07 02:53:13;;;;;;;8.05;4.88;;;21.10;48.30;;;;;;4973712;28;20033;-76
2022/04/07 02:55:39;;;;;;;7.28;4.55;;;21.10;48.30;;;;;;4974178;28;20035;-76
2022/04/07 02:58:05;;;;;;;7.57;5.00;;;21.10;48.40;;;;;;4972796;28;20077;-76
2022/04/07 03:00:31;;;;;;;7.50;5.00;;;21.10;48.30;;;;;;4974099;28;20033;-76
2022/04/07 03:02:57;;;;;;;7.68;4.75;;;21.10;48.40;;;;;;4972558;28;20038;-76
2022/04/07 03:05:23;;;;;;;9.13;5.05;;;21.10;48.40;;;;;;4972578;28;20038;-76
2022/04/07 03:07:49;;;;;;;8.02;4.95;;;21.10;48.30;;;;;;4973772;28;20035;-76
2022/04/07 03:10:15;;;;;;;7.22;4.60;;;21.10;48.30;;;;;;4973782;28;20027;-76
2022/04/07 03:12:41;;;;;;;6.88;4.43;;;21.10;48.30;;;;;;4956222;28;20030;-76
2022/04/07 03:15:08;;;;;;;7.30;4.57;;;21.00;48.30;;;;;;4973573;28;20045;-76
2022/04/07 03:17:34;;;;;;;7.85;4.57;;;21.10;48.40;;;;;;4973706;28;20023;-75
2022/04/07 03:20:00;;;;;;;7.32;4.25;;;21.00;48.30;;;;;;4973609;28;20023;-75
2022/04/07 03:22:26;;;;;;;7.72;6.25;;;21.00;48.30;;;;;;4973184;28;20026;-75
2022/04/07 03:24:52;;;;;;;6.90;4.32;;;21.10;48.40;;;;;;4973466;28;20049;-75
2022/04/07 03:27:18;;;;;;;6.78;4.55;;;21.10;48.40;;;;;;4973569;28;20484;-75
2022/04/07 03:29:44;;;;;;;7.75;3.95;;;21.00;48.30;;;;;;4973341;28;20031;-75
2022/04/07 03:32:10;;;;;;;7.30;4.40;;;21.10;49.00;;;;;;4973067;28;20084;-75
2022/04/07 03:34:39;;;;;;;6.95;4.70;;;21.10;48.30;;;;;;4973295;28;20476;-75
2022/04/07 03:37:05;;;;;;;7.07;4.60;;;21.10;48.30;;;;;;4972367;28;20035;-75
2022/04/07 03:39:32;;;;;;;6.53;4.65;;;21.10;48.30;;;;;;4972272;28;20042;-75
2022/04/07 03:41:58;;;;;;;6.53;4.22;;;21.10;48.30;;;;;;4971828;28;20031;-75
2022/04/07 03:44:23;;;;;;;7.78;4.20;;;21.10;48.20;;;;;;4973101;28;20138;-75
2022/04/07 03:46:49;;;;;;;26.90;24.83;;;21.10;48.20;;;;;;4973126;28;20031;-76
2022/04/07 03:49:15;;;;;;;7.88;4.25;;;21.10;48.20;;;;;;4956109;28;20038;-75
2022/04/07 03:51:40;;;;;;;7.72;4.70;;;21.10;48.20;;;;;;4971765;28;20026;-76
2022/04/07 03:54:06;;;;;;;5.85;4.05;;;21.10;48.30;;;;;;4973074;28;20027;-76
2022/04/07 03:56:32;;;;;;;8.25;4.50;;;21.10;48.30;;;;;;4972975;28;20302;-76
2022/04/07 03:58:58;;;;;;;6.50;4.03;;;21.10;48.30;;;;;;4972069;28;20479;-76
2022/04/07 04:01:26;;;;;;;6.10;4.22;;;21.10;48.30;;;;;;4972748;28;20395;-76
2022/04/07 04:03:52;;;;;;;6.85;4.28;;;21.10;48.30;;;;;;4972748;28;20041;-76
2022/04/07 04:06:17;;;;;;;7.43;4.43;;;21.10;48.30;;;;;;4973049;28;20027;-76
2022/04/07 04:08:43;;;;;;;6.32;3.90;;;21.10;48.30;;;;;;4971678;28;20684;-75
2022/04/07 04:11:09;;;;;;;6.22;4.25;;;21.10;48.30;;;;;;4972685;28;20495;-75
2022/04/07 04:13:34;;;;;;;5.95;4.65;;;21.10;48.30;;;;;;4971958;28;20446;-75
2022/04/07 04:16:01;;;;;;;6.57;4.15;;;21.10;48.30;;;;;;4973533;28;20110;-75
2022/04/07 04:18:27;;;;;;;6.90;4.10;;;21.10;48.30;;;;;;4973067;28;20030;-75
2022/04/07 04:20:53;;;;;;;5.35;3.67;;;21.10;48.30;;;;;;4972418;28;20037;-76
2022/04/07 04:23:18;;;;;;;7.50;4.65;;;21.10;48.30;;;;;;4973455;28;20035;-76
2022/04/07 04:25:46;;;;;;;5.82;4.05;;;21.10;48.30;;;;;;4972126;28;20081;-75
2022/04/07 04:28:12;;;;;;;5.68;3.97;;;21.10;48.30;;;;;;4973191;28;20041;-76
2022/04/07 04:30:38;;;;;;;5.78;3.92;;;21.10;48.30;;;;;;4973485;28;20110;-75
2022/04/07 04:33:04;;;;;;;7.18;4.55;;;21.10;48.30;;;;;;4972826;28;20114;-75
2022/04/07 04:35:29;;;;;;;4.78;3.22;;;21.10;48.30;;;;;;4972403;28;20034;-75
2022/04/07 04:37:55;;;;;;;6.60;4.07;;;21.10;48.30;;;;;;4972840;28;20030;-76
2022/04/07 04:40:21;;;;;;;6.50;4.10;;;21.10;48.40;;;;;;4972739;28;20043;-75
2022/04/07 04:42:47;;;;;;;6.07;3.90;;;21.10;48.30;;;;;;4972405;28;20033;-75
2022/04/07 04:45:12;;;;;;;6.40;3.97;;;21.10;48.30;;;;;;4971197;28;20463;-75
2022/04/07 04:47:40;;;;;;;7.60;3.92;;;21.10;48.30;;;;;;4972390;28;20077;-75
2022/04/07 04:50:07;;;;;;;6.60;4.03;;;21.10;48.30;;;;;;4971057;28;20030;-75
2022/04/07 04:52:32;;;;;;;5.45;3.88;;;21.10;48.20;;;;;;4970821;28;20027;-75
2022/04/07 04:54:58;;;;;;;5.40;4.10;;;21.10;48.30;;;;;;4971120;28;20522;-75
2022/04/07 04:57:24;;;;;;;6.50;4.15;;;21.10;48.20;;;;;;4972323;28;20023;-75
2022/04/07 04:59:50;;;;;;;5.68;3.67;;;21.10;48.30;;;;;;4970936;28;20038;-75
2022/04/07 05:02:15;;;;;;;5.80;4.07;;;21.10;48.20;;;;;;4970675;28;20038;-75
2022/04/07 05:04:41;;;;;;;5.88;3.80;;;21.10;48.20;;;;;;4972283;28;20415;-75
2022/04/07 05:07:07;;;;;;;6.63;4.05;;;21.10;48.30;;;;;;4970822;28;20058;-75
2022/04/07 05:09:34;;;;;;;6.28;4.28;;;21.10;48.20;;;;;;4972248;28;20030;-75
2022/04/07 05:12:00;;;;;;;6.40;3.88;;;21.10;48.30;;;;;;4975540;28;20026;-75
2022/04/07 05:14:26;;;;;;;5.68;4.03;;;21.10;48.30;;;;;;4974698;28;20030;-74
2022/04/07 05:16:53;;;;;;;6.68;4.18;;;21.10;48.30;;;;;;4975832;28;20086;-74
2022/04/07 05:19:19;;;;;;;5.60;3.53;;;21.10;48.30;;;;;;4975835;28;20031;-74
2022/04/07 05:21:49;;;;;;;5.07;3.63;;;21.10;48.30;;;;;;4974405;28;20030;-75
2022/04/07 05:24:17;;;;;;;6.45;4.32;;;21.10;48.30;;;;;;4971018;23;20039;-77
2022/04/07 05:26:44;;;;;;;5.40;3.65;;;21.10;48.30;;;;;;4958508;28;20039;-77
2022/04/07 05:29:10;;;;;;;5.90;3.78;;;21.10;48.30;;;;;;4955127;29;20074;-77
2022/04/07 05:31:35;;;;;;;7.47;4.45;;;21.10;48.30;;;;;;4955975;28;20432;-78
2022/04/07 05:34:01;;;;;;;5.32;3.70;;;21.10;48.30;;;;;;4956224;28;20031;-77
2022/04/07 05:36:27;;;;;;;5.40;3.83;;;21.10;48.30;;;;;;4956344;28;20031;-77
2022/04/07 05:38:53;;;;;;;6.65;3.92;;;21.10;48.30;;;;;;4956009;28;20054;-78
2022/04/07 05:41:19;;;;;;;5.93;3.67;;;21.10;48.30;;;;;;4955814;29;20126;-77
2022/04/07 05:43:44;;;;;;;5.55;3.60;;;21.10;48.30;;;;;;4971077;28;20035;-76
2022/04/07 05:46:10;;;;;;;6.18;4.03;;;21.10;48.30;;;;;;4956087;28;20035;-78
2022/04/07 05:48:36;;;;;;;6.03;3.92;;;21.10;48.30;;;;;;4954756;29;20037;-77
2022/04/07 05:51:02;;;;;;;6.32;4.00;;;21.10;48.30;;;;;;4955850;28;20063;-78
2022/04/07 05:53:28;;;;;;;5.20;3.55;;;21.10;48.30;;;;;;4955802;28;20027;-78
2022/04/07 05:55:56;;;;;;;7.05;3.95;;;21.10;48.30;;;;;;4956437;28;20042;-78
2022/04/07 05:58:22;;;;;;;6.50;3.78;;;21.10;48.30;;;;;;4954863;29;20059;-78
2022/04/07 06:00:47;;;;;;;5.40;3.70;;;21.10;48.30;;;;;;4954578;29;20027;-78
2022/04/07 06:03:13;;;;;;;4.50;3.20;;;21.10;48.30;;;;;;4954574;29;20070;-78
2022/04/07 06:05:39;;;;;;;17.30;16.00;;;21.10;48.20;;;;;;4954651;29;20118;-78
2022/04/07 06:08:05;;;;;;;5.22;4.00;;;21.10;48.30;;;;;;4954740;29;20403;-78
2022/04/07 06:10:31;;;;;;;5.63;3.85;;;21.20;48.30;;;;;;4955700;28;20023;-78
2022/04/07 06:12:57;;;;;;;5.25;3.40;;;21.20;48.30;;;;;;4955471;28;20082;-79
2022/04/07 06:15:23;;;;;;;5.78;3.50;;;21.10;48.20;;;;;;4955334;28;20483;-78
2022/04/07 06:17:50;;;;;;;4.57;3.60;;;21.20;48.30;;;;;;4955709;28;20034;-78
2022/04/07 06:20:16;;;;;;;4.85;3.60;;;21.10;48.20;;;;;;4954216;29;20071;-78
2022/04/07 06:22:44;;;;;;;5.43;3.90;;;21.10;48.30;;;;;;4952861;28;20106;-78
2022/04/07 06:25:10;;;;;;;5.95;3.70;;;21.10;48.30;;;;;;4955277;28;20125;-78
2022/04/07 06:27:37;;;;;;;4.65;3.33;;;21.10;48.30;;;;;;4954170;29;20280;-79
2022/04/07 06:30:05;;;;;;;5.75;3.47;;;21.10;48.30;;;;;;4955228;29;20023;-78
2022/04/07 06:32:30;;;;;;;5.70;3.50;;;21.10;48.30;;;;;;4955056;28;20106;-78
2022/04/07 06:34:56;;;;;;;5.25;3.85;;;21.10;48.30;;;;;;4955113;28;20107;-79
2022/04/07 06:37:22;;;;;;;5.13;3.33;;;21.10;48.30;;;;;;4954007;29;20027;-78
2022/04/07 06:39:47;;;;;;;5.60;3.70;;;21.10;48.30;;;;;;4955171;28;20077;-78
2022/04/07 06:42:13;;;;;;;4.82;3.47;;;21.10;48.30;;;;;;4955020;28;20034;-78
2022/04/07 06:44:39;;;;;;;4.13;3.00;;;21.10;48.30;;;;;;4954102;29;20031;-77
2022/04/07 06:47:04;;;;;;;5.40;3.63;;;21.10;48.30;;;;;;4954087;29;20045;-77
2022/04/07 06:49:30;;;;;;;6.38;4.32;;;21.20;48.40;;;;;;4938005;29;20082;-77
2022/04/07 06:51:56;;;;;;;5.18;3.58;;;21.10;48.30;;;;;;4953656;28;20042;-78
2022/04/07 06:54:22;;;;;;;6.57;3.53;;;21.10;48.30;;;;;;4954805;28;20027;-77
2022/04/07 06:56:47;;;;;;;5.57;3.63;;;21.10;48.30;;;;;;4954852;28;20114;-78
2022/04/07 06:59:13;;;;;;;5.55;3.63;;;21.10;48.30;;;;;;4953646;29;20033;-79
2022/04/07 07:01:39;;;;;;;5.57;3.53;;;21.10;48.40;;;;;;4954612;28;20034;-78
2022/04/07 07:04:05;;;;;;;6.47;3.45;;;21.10;48.30;;;;;;4953528;29;20034;-78
2022/04/07 07:06:30;;;;;;;5.13;3.38;;;21.10;48.30;;;;;;4954502;28;20233;-78
2022/04/07 07:08:56;;;;;;;5.15;3.38;;;21.10;48.30;;;;;;4953464;29;20140;-79
2022/04/07 07:11:22;;;;;;;5.82;3.47;;;21.10;48.30;;;;;;4953245;29;20031;-78
2022/04/07 07:13:48;;;;;;;7.40;3.60;;;21.20;48.30;;;;;;4937673;29;20512;-78
2022/04/07 07:16:13;;;;;;;4.88;3.33;;;21.20;48.30;;;;;;4954498;28;20027;-78
2022/04/07 07:18:42;;;;;;;5.38;3.40;;;21.20;48.30;;;;;;4953187;28;20031;-78
2022/04/07 07:21:08;;;;;;;5.85;3.63;;;21.20;48.30;;;;;;4953012;29;20031;-78
2022/04/07 07:23:34;;;;;;;5.30;3.60;;;21.20;48.30;;;;;;4954571;28;20403;-78
2022/04/07 07:26:00;;;;;;;6.57;3.83;;;21.20;48.30;;;;;;4954157;28;20031;-78
2022/04/07 07:28:25;;;;;;;5.97;3.85;;;21.20;48.30;;;;;;4953303;29;20027;-78
2022/04/07 07:30:51;;;;;;;4.57;2.78;;;21.20;48.30;;;;;;4955112;28;20036;-78
2022/04/07 07:33:17;;;;;;;4.32;3.08;;;21.20;48.30;;;;;;4955513;28;20064;-77
2022/04/07 07:35:45;;;;;;;4.90;3.20;;;21.20;49.00;;;;;;4954641;29;20027;-76
2022/04/07 07:38:11;;;;;;;4.93;3.33;;;21.20;48.30;;;;;;4954290;29;20255;-77
2022/04/07 07:40:37;;;;;;;4.00;3.10;;;21.20;48.40;;;;;;4955197;28;20031;-77
2022/04/07 07:43:04;;;;;;;5.45;3.65;;;21.20;48.50;;;;;;4954266;28;20448;-78
2022/04/07 07:45:31;;;;;;;5.25;3.63;;;21.20;48.60;;;;;;4954036;28;20042;-78
2022/04/07 07:47:57;;;;;;;5.18;3.35;;;21.20;48.50;;;;;;4952673;29;20031;-78
2022/04/07 07:50:23;;;;;;;4.18;2.85;;;21.20;48.40;;;;;;4953994;28;20034;-78
2022/04/07 07:52:49;;;;;;;4.88;3.30;;;21.20;48.50;;;;;;4953997;28;20105;-78
2022/04/07 07:55:15;;;;;;;5.25;3.20;;;21.20;48.50;;;;;;4952477;29;20033;-78
2022/04/07 07:57:41;;;;;;;5.82;3.22;;;21.20;48.50;;;;;;4953773;28;20031;-77
2022/04/07 08:00:09;;;;;;;4.55;3.00;;;21.20;48.50;;;;;;4952563;29;20448;-77
2022/04/07 08:02:37;;;;;;;5.35;3.20;;;21.20;48.50;;;;;;4952509;29;20071;-78
2022/04/07 08:05:03;;;;;;;4.30;2.90;;;21.20;48.40;;;;;;4953692;28;20039;-78
2022/04/07 08:07:29;;;;;;;4.40;2.88;;;21.20;48.50;;;;;;4953739;28;20023;-78
2022/04/07 08:09:56;;;;;;;5.38;3.15;;;21.30;48.70;;;;;;4952409;29;20039;-78
2022/04/07 08:12:26;;;;;;;4.80;3.15;;;21.30;48.80;;;;;;4953304;28;20023;-78
2022/04/07 08:14:52;;;;;;;4.50;3.22;;;21.30;49.00;;;;;;4952540;29;20459;-78
2022/04/07 08:17:19;;;;;;;5.20;3.42;;;21.30;48.80;;;;;;4953664;28;20059;-78
2022/04/07 08:19:45;;;;;;;4.55;3.10;;;21.30;48.80;;;;;;4953978;28;20391;-78
2022/04/07 08:22:11;;;;;;;5.25;3.35;;;21.30;48.80;;;;;;4952179;29;20129;-76
2022/04/07 08:24:36;;;;;;;4.85;3.22;;;21.30;48.90;;;;;;4968246;28;20039;-76
2022/04/07 08:27:04;;;;;;;4.10;2.78;;;21.30;48.90;;;;;;4952221;29;20049;-77
2022/04/07 08:29:30;;;;;;;4.47;3.05;;;21.40;49.00;;;;;;4952239;29;20042;-77
2022/04/07 08:31:56;;;;;;;4.28;2.65;;;21.30;49.00;;;;;;4953167;28;20496;-77
2022/04/07 08:34:22;;;;;;;6.50;3.53;;;21.40;49.00;;;;;;4952428;29;20031;-77
2022/04/07 08:36:48;;;;;;;5.25;3.35;;;21.40;49.10;;;;;;4953522;28;20027;-77
2022/04/07 08:39:14;;;;;;;3.83;2.60;;;21.40;49.00;;;;;;4953605;28;20034;-80
2022/04/07 08:41:44;;;;;;;4.97;3.08;;;21.40;49.00;;;;;;4953018;28;20078;-79
2022/04/07 08:44:09;;;;;;;4.72;2.80;;;21.40;49.20;;;;;;4953519;28;20059;-79
2022/04/07 08:46:35;;;;;;;4.80;3.08;;;21.40;49.10;;;;;;4956727;28;20508;-79
2022/04/07 08:49:04;;;;;;;4.68;3.00;;;21.40;49.20;;;;;;4956582;29;20093;-79
2022/04/07 08:51:30;;;;;;;4.90;3.28;;;21.40;49.20;;;;;;4955825;29;20509;-79
2022/04/07 08:53:56;;;;;;;3.72;2.70;;;21.40;49.20;;;;;;4956130;29;20051;-77
2022/04/07 08:56:23;;;;;;;4.15;2.85;;;21.30;49.10;;;;;;4956208;29;20027;-79
2022/04/07 08:58:50;;;;;;;7.05;6.22;;;21.40;49.30;;;;;;4957325;28;20267;-78
2022/04/07 09:01:16;;;;;;;5.68;3.20;;;21.30;49.20;;;;;;4956721;28;20036;-78
2022/04/07 09:03:43;;;;;;;4.38;3.20;;;21.30;49.00;;;;;;4957130;29;20078;-78
2022/04/07 09:06:10;;;;;;;5.47;3.25;;;21.30;49.00;;;;;;4924204;29;20029;-80
2022/04/07 09:08:38;;;;;;;4.85;3.22;;;21.30;48.90;;;;;;4956177;29;20035;-80
2022/04/07 09:11:09;;;;;;;5.15;3.20;;;21.30;48.90;;;;;;4955530;29;20090;-80
2022/04/07 09:13:45;;;;;;;4.43;2.92;;;21.30;48.90;;;;;;4957267;28;20038;-80
2022/04/07 09:16:15;;;;;;;4.88;3.08;;;21.30;49.00;;;;;;4956830;28;20062;-80
2022/04/07 09:18:43;;;;;;;4.60;3.10;;;21.30;48.90;;;;;;4956909;28;20027;-79
2022/04/07 09:21:23;;;;;;;4.60;3.00;;;21.30;48.90;;;;;;4956513;28;20023;-80
2022/04/07 09:23:49;;;;;;;4.65;2.85;;;21.30;49.00;;;;;;4957118;28;20041;-80
2022/04/07 09:26:16;;;;;;;4.38;3.00;;;21.30;48.90;;;;;;4954961;29;20035;-80
2022/04/07 09:28:42;;;;;;;4.07;2.75;;;21.30;49.00;;;;;;4955484;29;20735;-80
2022/04/07 09:31:15;;;;;;;4.25;2.80;;;21.30;48.90;;;;;;4939201;29;20412;-79
2022/04/07 09:33:42;;;;;;;4.15;2.83;;;21.30;49.00;;;;;;4956612;28;20031;-81
2022/04/07 09:36:21;;;;;;;13.57;12.55;;;21.30;48.90;;;;;;4955109;29;20234;-81
2022/04/07 09:38:51;;;;;;;4.78;3.05;;;21.30;49.00;;;;;;4956772;28;20454;-80
2022/04/07 09:41:21;;;;;;;5.97;3.25;;;21.30;48.90;;;;;;4956137;28;20415;-80
2022/04/07 09:43:47;;;;;;;;;;;21.30;48.90;;;;;;4939552;29;20408;-78
2022/04/07 09:46:21;;;;;;;5.00;3.08;;;21.30;48.90;;;;;;4956101;29;19914;-78
2022/04/07 09:48:58;;;;;;;5.68;3.08;;;21.30;48.90;;;;;;4955207;29;20431;-80
2022/04/07 09:51:25;;;;;;;4.00;3.15;;;21.30;48.90;;;;;;4955714;28;20027;-79
2022/04/07 09:53:55;;;;;;;3.90;2.90;;;21.30;48.90;;;;;;4956204;28;20459;-79
2022/04/07 09:56:23;;;;;;;5.25;3.38;;;21.30;48.90;;;;;;4955753;28;20123;-79
2022/04/07 09:58:51;;;;;;;4.75;2.80;;;21.30;49.00;;;;;;4956014;28;20114;-79
2022/04/07 10:01:16;;;;;;;4.47;3.30;;;21.30;49.00;;;;;;4954410;29;20027;-79
2022/04/07 10:03:44;;;;;;;4.32;2.60;;;21.30;48.90;;;;;;4955967;29;20040;-79
2022/04/07 10:06:11;;;;;;;4.47;2.95;;;21.30;49.00;;;;;;4955545;28;20085;-79
2022/04/07 10:08:39;;;;;;;4.18;2.83;;;21.30;49.00;;;;;;4954781;29;20388;-79
2022/04/07 10:11:05;;;;;;;4.75;2.90;;;21.30;49.00;;;;;;4955515;28;20190;-78
2022/04/07 10:13:34;;;;;;;4.57;3.30;;;21.30;49.00;;;;;;4954610;29;20031;-78
2022/04/07 10:16:16;;;;;;;6.22;3.05;;;21.20;49.00;;;;;;4954460;29;20043;-77
2022/04/07 10:19:01;;;;;;;4.20;2.78;;;21.30;49.00;;;;;;4955703;28;20113;-78
2022/04/07 10:21:48;;;;;;;3.85;2.80;;;21.30;49.00;;;;;;4953994;29;20031;-78
2022/04/07 10:24:43;;;;;;;4.47;3.00;;;21.30;48.90;;;;;;4955186;28;20042;-77
2022/04/07 10:27:10;;;;;;;4.18;2.72;;;21.30;48.90;;;;;;4954204;29;20117;-77
2022/04/07 10:29:38;;;;;;;4.50;3.03;;;21.30;49.00;;;;;;4955529;28;20166;-77
2022/04/07 10:32:13;;;;;;;3.78;2.83;;;21.30;49.00;;;;;;4938058;29;20038;-77
2022/04/07 10:34:58;;;;;;;3.70;2.65;;;21.30;49.00;;;;;;4955671;28;20046;-76
2022/04/07 10:37:42;;;;;;;3.95;2.70;;;21.30;49.00;;;;;;4954269;29;20027;-77
2022/04/07 10:40:37;;;;;;;5.20;2.60;;;21.30;49.00;;;;;;4954204;29;20038;-78
2022/04/07 10:43:14;;;;;;;4.93;3.00;;;21.30;49.00;;;;;;4954896;28;20078;-77
2022/04/07 10:45:42;;;;;;;3.60;2.90;;;21.30;49.00;;;;;;4953765;29;20040;-77
2022/04/07 10:48:31;;;;;;;3.83;2.72;;;21.30;49.00;;;;;;4954279;28;20546;-78
2022/04/07 10:51:01;;;;;;;7.45;6.63;;;21.30;48.90;;;;;;4955155;28;20046;-77
2022/04/07 10:53:48;;;;;;;4.43;2.58;;;21.30;48.90;;;;;;4955335;28;20023;-78
2022/04/07 10:56:38;;;;;;;4.60;3.03;;;21.30;48.90;;;;;;4955020;28;20031;-78
2022/04/07 10:59:21;;;;;;;;;;;21.30;48.90;;;;;;4955451;28;20027;-76
2022/04/07 11:02:00;;;;;;;4.03;2.80;;;21.30;48.90;;;;;;4954546;28;20386;-78
2022/04/07 11:04:25;;;;;;;4.28;2.83;;;21.30;48.90;;;;;;4954828;28;20165;-79
2022/04/07 11:09:42;;;;;;;4.53;2.70;;;21.30;48.90;;;;;;4936988;29;20488;-78
2022/04/07 11:12:09;;;;;;;3.47;2.85;;;21.30;49.00;;;;;;4954203;28;20031;-78
2022/04/07 11:14:35;;;;;;;4.60;2.70;;;21.30;49.00;;;;;;4954454;28;20027;-78
2022/04/07 11:17:05;;;;;;;4.07;2.90;;;21.30;49.00;;;;;;4937498;29;20066;-78
2022/04/07 11:19:44;;;;;;;4.43;2.72;;;21.30;49.00;;;;;;4953443;29;20023;-78
2022/04/07 11:22:10;;;;;;;3.83;2.57;;;21.30;49.00;;;;;;4954234;28;20034;-78
2022/04/07 11:24:43;;;;;;;4.35;2.83;;;21.30;49.00;;;;;;4967674;23;20283;-74
2022/04/07 11:27:31;;;;;;;3.17;2.40;;;21.30;49.00;;;;;;4924672;29;20092;-74
2022/04/07 11:30:09;;;;;;;3.63;2.47;;;21.30;49.00;;;;;;4932466;29;20628;-75
2022/04/07 11:32:36;;;;;;;3.80;2.78;;;21.20;49.00;;;;;;4933517;29;20441;-74
2022/04/07 11:35:15;;;;;;;4.35;2.90;;;21.20;48.90;;;;;;4933570;29;20027;-75
2022/04/07 11:37:42;;;;;;;3.60;2.70;;;21.30;49.00;;;;;;4933658;29;20034;-75
2022/04/07 11:40:09;;;;;;;4.55;2.97;;;21.30;49.60;;;;;;4933676;29;20480;-75
2022/04/07 11:42:35;;;;;;;4.15;2.88;;;21.20;49.60;;;;;;4934595;29;20043;-75
2022/04/07 11:45:01;;;;;;;3.85;2.80;;;21.20;48.90;;;;;;4933653;29;20081;-76
2022/04/07 11:47:31;;;;;;;3.97;2.70;;;21.30;49.00;;;;;;4917777;29;20036;-75
2022/04/07 11:49:57;;;;;;;4.05;2.63;;;21.20;49.00;;;;;;4934978;29;20038;-75
2022/04/07 11:52:35;;;;;;;3.42;2.50;;;21.20;49.00;;;;;;4934418;29;20020;-76
2022/04/07 11:55:04;;;;;;;4.38;2.67;;;21.20;48.90;;;;;;4934693;29;20024;-75
2022/04/07 11:57:32;;;;;;;3.78;2.85;;;21.30;49.00;;;;;;4934613;29;20412;-75
2022/04/07 12:00:01;;;;;;;3.38;2.58;;;21.30;48.90;;;;;;4933443;29;20135;-75
2022/04/07 12:02:26;;;;;;;4.60;2.67;;;21.30;49.00;;;;;;4934076;29;20031;-76
2022/04/07 12:04:58;;;;;;;5.20;3.08;;;21.30;48.90;;;;;;4934011;29;20047;-76
2022/04/07 12:07:23;;;;;;;11.23;8.80;;;21.30;50.20;;;;;;4933158;29;20034;-76
2022/04/07 12:09:49;;;;;;;10.43;9.40;;;21.30;50.50;;;;;;4933329;29;20043;-77
2022/04/07 12:12:17;;;;;;;4.57;2.45;;;21.30;52.00;;;;;;4933956;29;20032;-78
2022/04/07 12:14:43;;;;;;;4.55;2.75;;;21.30;53.00;;;;;;4934380;29;20050;-72
2022/04/07 12:17:11;;;;;;;6.40;3.20;;;21.40;52.70;;;;;;4933059;29;20035;-68
2022/04/07 12:19:44;;;;;;;30.90;28.60;;;21.30;52.00;;;;;;4933476;29;20055;-68
2022/04/07 12:22:11;;;;;;;16.80;5.38;;;21.20;51.00;;;;;;4933681;29;20469;-68
2022/04/07 12:24:36;;;;;;;13.38;4.68;;;21.20;49.80;;;;;;4932892;29;20328;-71
2022/04/07 12:27:04;;;;;;;5.18;3.00;;;21.10;49.70;;;;;;4917156;29;20040;-73
2022/04/07 12:29:31;;;;;;;3.70;2.45;;;20.90;48.10;;;;;;4934183;29;20083;-72
2022/04/07 12:31:59;;;;;;;13.45;12.38;;;20.80;47.80;;;;;;4933993;29;20067;-72
2022/04/07 12:34:25;;;;;;;7.22;1.70;;;20.80;47.80;;;;;;4932677;29;20063;-72
2022/04/07 12:36:52;;;;;;;7.53;2.38;;;20.80;49.40;;;;;;4934109;29;20070;-75
2022/04/07 12:39:17;;;;;;;6.30;3.78;;;20.80;51.00;;;;;;4934072;29;20119;-73
